createdAt,value
2022-11-04T06:01:27.207Z,11.40
2022-11-04T06:06:33.258Z,11.30
2022-11-04T06:11:38.382Z,11.40
2022-11-04T06:16:43.253Z,11.40
2022-11-04T06:21:46.764Z,11.40
2022-11-04T06:26:50.292Z,11.40
2022-11-04T06:31:55.378Z,11.30
2022-11-04T06:36:58.988Z,11.30
2022-11-04T06:42:03.132Z,11.40
2022-11-04T06:47:08.831Z,11.40
2022-11-04T06:52:12.365Z,11.50
2022-11-04T06:57:15.933Z,11.60
2022-11-04T07:02:20.951Z,11.60
2022-11-04T07:07:24.604Z,11.70
2022-11-04T07:12:28.124Z,11.80
2022-11-04T07:17:32.988Z,11.80
2022-11-04T07:22:36.492Z,11.80
2022-11-04T07:27:40.239Z,11.90
2022-11-04T07:32:45.105Z,11.90
2022-11-04T07:37:48.645Z,12.00
2022-11-04T07:42:52.210Z,12.00
2022-11-04T07:47:57.283Z,12.10
2022-11-04T07:53:01.060Z,12.20
2022-11-04T07:58:04.685Z,12.20
2022-11-04T08:03:09.985Z,12.20
2022-11-04T08:08:14.285Z,12.30
2022-11-04T08:13:17.910Z,12.30
2022-11-04T08:18:22.837Z,12.40
2022-11-04T08:23:26.361Z,12.60
2022-11-04T08:28:30.140Z,12.70
2022-11-04T08:33:36.508Z,12.80
2022-11-04T08:38:40.162Z,12.90
2022-11-04T08:43:43.754Z,13.00
2022-11-04T08:48:49.492Z,13.10
2022-11-04T08:53:56.288Z,13.30
2022-11-04T08:59:00.729Z,13.50
2022-11-04T09:04:06.463Z,13.80
2022-11-04T09:09:13.109Z,14.10
2022-11-04T09:14:17.868Z,14.50
2022-11-04T09:19:22.849Z,14.90
2022-11-04T09:24:26.541Z,15.20
2022-11-04T09:29:33.610Z,15.30
2022-11-04T09:34:38.752Z,15.50
2022-11-04T09:39:42.322Z,15.70
2022-11-04T09:45:21.143Z,15.90
2022-11-04T09:50:24.013Z,15.80
2022-11-04T09:55:32.271Z,15.80
2022-11-04T10:00:40.365Z,15.80
2022-11-04T10:06:04.815Z,16.10
2022-11-04T10:11:15.404Z,16.50
2022-11-04T10:16:36.036Z,16.90
2022-11-04T10:21:49.141Z,17.30
2022-11-04T10:27:00.619Z,17.70
2022-11-04T10:32:12.385Z,18.00
2022-11-04T10:37:17.740Z,18.30
2022-11-04T10:42:22.795Z,18.40
2022-11-04T10:47:39.964Z,18.50
2022-11-04T10:52:45.022Z,18.70
2022-11-04T10:57:48.626Z,18.90
2022-11-04T11:02:52.728Z,18.90
2022-11-04T11:07:59.177Z,19.00
2022-11-04T11:13:04.746Z,19.10
2022-11-04T11:18:18.572Z,19.30
2022-11-04T11:23:39.204Z,19.60
2022-11-04T11:28:51.249Z,19.60
2022-11-04T11:34:01.344Z,19.30
2022-11-04T11:39:15.739Z,19.00
2022-11-04T11:44:31.617Z,19.10
2022-11-04T11:49:38.111Z,18.90
2022-11-04T11:54:45.053Z,18.80
2022-11-04T12:10:51.365Z,19.80
2022-11-04T12:16:12.184Z,20.00
2022-11-04T12:21:19.179Z,20.40
2022-11-04T12:26:36.600Z,21.00
2022-11-04T12:31:50.180Z,21.30
2022-11-04T12:37:12.616Z,21.40
2022-11-04T12:42:32.744Z,21.30
2022-11-04T12:47:39.645Z,20.70
2022-11-04T12:53:07.062Z,20.30
2022-11-04T12:58:29.709Z,20.10
2022-11-04T13:03:42.383Z,20.30
2022-11-04T13:08:50.326Z,20.50
2022-11-04T13:14:03.416Z,20.30
2022-11-04T13:19:09.539Z,20.20
2022-11-04T13:24:18.662Z,20.10
2022-11-04T13:29:25.793Z,20.00
2022-11-04T13:34:40.255Z,19.90
2022-11-04T13:39:49.417Z,20.00
2022-11-04T13:44:58.823Z,19.90
2022-11-04T13:50:02.687Z,19.90
2022-11-04T13:55:21.678Z,20.00
2022-11-04T14:00:30.214Z,20.20
2022-11-04T14:05:48.144Z,20.40
2022-11-04T14:11:10.216Z,20.30
2022-11-04T14:16:42.771Z,19.90
2022-11-04T14:22:07.741Z,19.80
2022-11-04T14:27:24.071Z,19.70
2022-11-04T14:32:34.627Z,19.80
2022-11-04T14:37:38.421Z,19.80
2022-11-04T14:42:50.583Z,19.60
2022-11-04T14:47:58.495Z,19.50
2022-11-04T14:53:05.186Z,19.40
2022-11-04T14:58:24.472Z,19.40
2022-11-04T15:09:02.032Z,19.00
2022-11-04T15:14:16.898Z,18.80
2022-11-04T15:19:28.698Z,18.50
2022-11-04T15:24:32.627Z,18.30
2022-11-04T15:29:36.152Z,18.20
2022-11-04T15:34:41.827Z,18.00
2022-11-04T15:39:47.715Z,17.90
2022-11-04T15:44:53.586Z,17.60
2022-11-04T15:50:17.447Z,17.40
2022-11-04T15:55:23.692Z,17.20
2022-11-04T16:00:28.867Z,16.80
2022-11-04T16:05:37.391Z,16.70
2022-11-04T16:10:41.101Z,16.60
2022-11-04T16:15:47.398Z,16.40
2022-11-04T16:20:53.857Z,16.30
2022-11-04T16:26:00.131Z,16.10
2022-11-04T16:31:06.213Z,16.10
2022-11-04T16:36:23.356Z,16.00
2022-11-04T16:41:29.126Z,15.90
2022-11-04T16:46:34.587Z,15.80
2022-11-04T16:51:39.496Z,15.80
2022-11-04T16:56:43.101Z,15.70
2022-11-04T17:01:47.323Z,15.70
2022-11-04T17:06:52.322Z,15.60
2022-11-04T17:11:56.274Z,15.60
2022-11-04T17:16:59.802Z,15.60
2022-11-04T17:22:07.564Z,15.60
2022-11-04T17:27:13.351Z,15.40
2022-11-04T17:32:17.320Z,15.20
2022-11-04T17:37:23.742Z,15.10
2022-11-04T17:42:44.706Z,15.00
2022-11-04T17:47:52.121Z,14.90
2022-11-04T17:52:57.017Z,14.70
2022-11-04T17:58:05.706Z,14.60
2022-11-04T18:03:12.263Z,14.50
2022-11-04T18:08:19.869Z,14.50
2022-11-04T18:13:23.622Z,14.40
2022-11-04T18:18:27.158Z,14.40
2022-11-04T18:23:32.224Z,14.40
2022-11-04T18:28:37.558Z,14.30
2022-11-04T18:33:42.672Z,14.30
2022-11-04T18:38:48.306Z,14.20
2022-11-04T18:43:52.377Z,14.10
2022-11-04T18:48:56.153Z,14.00
2022-11-04T18:54:05.202Z,13.90
2022-11-04T18:59:10.498Z,13.60
2022-11-04T19:04:14.742Z,13.50
2022-11-04T19:14:43.512Z,13.40
2022-11-04T19:19:47.526Z,13.40
2022-11-04T19:24:52.446Z,13.30
2022-11-04T19:29:56.357Z,13.20
2022-11-04T19:35:00.199Z,13.20
2022-11-04T19:40:06.260Z,13.10
2022-11-04T19:45:10.783Z,13.10
2022-11-04T19:50:14.312Z,13.00
2022-11-04T19:55:19.687Z,12.90
2022-11-04T20:00:23.842Z,12.80
2022-11-04T20:05:27.705Z,12.80
2022-11-04T20:10:32.560Z,12.70
2022-11-04T20:15:36.428Z,12.60
2022-11-04T20:20:39.992Z,12.50
2022-11-04T20:25:45.345Z,12.50
2022-11-04T20:30:48.894Z,12.40
2022-11-04T20:35:52.448Z,12.40
2022-11-04T20:41:02.643Z,12.30
2022-11-04T20:46:08.332Z,12.30
2022-11-04T20:51:14.614Z,12.30
2022-11-04T20:56:20.719Z,12.20
2022-11-04T21:01:27.130Z,12.10
2022-11-04T21:06:30.994Z,12.10
2022-11-04T21:11:36.308Z,12.10
2022-11-04T21:16:39.917Z,12.10
2022-11-04T21:21:44.284Z,12.10
2022-11-04T21:26:49.460Z,12.00
2022-11-04T21:31:53.453Z,11.90
2022-11-04T21:36:57.016Z,11.90
2022-11-04T21:42:01.886Z,11.90
2022-11-04T21:47:05.726Z,11.80
2022-11-04T21:52:09.292Z,11.70
2022-11-04T21:57:14.306Z,11.80
2022-11-04T22:02:17.986Z,11.70
2022-11-04T22:07:41.886Z,11.70
2022-11-04T22:12:51.101Z,11.60
2022-11-04T22:17:54.925Z,11.60
2022-11-04T22:22:58.565Z,11.50
2022-11-04T22:28:03.470Z,11.50
2022-11-04T22:33:07.507Z,11.50
2022-11-04T22:38:11.210Z,11.50
2022-11-04T22:43:16.095Z,11.50
2022-11-04T22:48:19.627Z,11.50
2022-11-04T22:53:23.215Z,11.50
2022-11-04T22:58:28.505Z,11.50
2022-11-04T23:03:32.535Z,11.40
2022-11-04T23:08:37.747Z,11.40
2022-11-04T23:14:06.826Z,11.40
2022-11-04T23:19:10.358Z,11.30
2022-11-04T23:24:31.641Z,11.30
2022-11-04T23:29:54.104Z,11.20
